Check out our new PWSWeather beta!
PWSweather.com
Personal Weather Stations
Station Observations
EA1AHA
AvilesES 33403

AvilesES 33403

Lat: 43.5457566, Lon: -5.9063395

Elevation: 213

Station Type: WATSON W-8681

Latest ConditionsUpdated 8:52:01 PM GMT+01:01 Monday, Feb 24, 2020
Currently Today's Max Today's Min Today's Average
Temperature 54.3°F12.4°C 59.0°F15.0°C 44.1°F6.7°C 50.6°F10.3°C
Dew Point 48.9°F9.4°C 50.4°F10.2°C 43.8°F6.6°C 47.4°F8.6°C
Winds 2.2 mph SW3.5 kmh SW 13.6 mph -21.9 kmh - - 4.4 mph 7.1 kmh
Wind Gusts 3.1 mph5.0 kmh 15.2 mph24.5 kmh - -
Humidity 82% 99% 68% 89%
Pressure 30.29 in1025.7 mb 30.52 in1033.5 mb 30.29 in1025.7 mb -
Hour Temp Dew Point Humidity Winds Wind Gusts Pressure Precip Precip Rate Daily Precip Total
08:52 PM 54.3°F12.4°C 48.9°F9.4°C 82% 2.2 mph SW3.5 kmh SW 3.1 mph5.0 kmh 30.29 in1025.7 mb 0.00 in0.0 mm 0.00 in0.0 mm 0.00 in0.0 mm
08:47 PM 54.3°F12.4°C 48.9°F9.4°C 82% 3.1 mph S5.0 kmh S 4.5 mph7.2 kmh 30.29 in1025.7 mb 0.00 in0.0 mm 0.00 in0.0 mm 0.00 in0.0 mm
08:42 PM 54.3°F12.4°C 48.9°F9.4°C 82% 3.8 mph SW6.1 kmh SW 4.5 mph7.2 kmh 30.29 in1025.7 mb 0.00 in0.0 mm 0.00 in0.0 mm 0.00 in0.0 mm
08:37 PM 54.3°F12.4°C 48.9°F9.4°C 82% 3.1 mph SW5.0 kmh SW 3.8 mph6.1 kmh 30.30 in1026.1 mb 0.00 in0.0 mm 0.00 in0.0 mm 0.00 in0.0 mm
08:32 PM 54.3°F12.4°C 48.9°F9.4°C 82% 3.1 mph S5.0 kmh S 3.8 mph6.1 kmh 30.29 in1025.7 mb 0.00 in0.0 mm 0.00 in0.0 mm 0.00 in0.0 mm
08:27 PM 54.3°F12.4°C 48.6°F9.2°C 81% 3.8 mph S6.1 kmh S 5.4 mph8.7 kmh 30.30 in1026.1 mb 0.00 in0.0 mm 0.00 in0.0 mm 0.00 in0.0 mm
08:22 PM 54.3°F12.4°C 48.6°F9.2°C 81% 1.6 mph S2.6 kmh S 3.1 mph5.0 kmh 30.30 in1026.1 mb 0.00 in0.0 mm 0.00 in0.0 mm 0.00 in0.0 mm
08:17 PM 54.5°F12.5°C 47.8°F8.8°C 78% 2.2 mph S3.5 kmh S 3.1 mph5.0 kmh 30.31 in1026.4 mb 0.00 in0.0 mm 0.00 in0.0 mm 0.00 in0.0 mm
08:12 PM 54.5°F12.5°C 47.8°F8.8°C 78% 3.1 mph SW5.0 kmh SW 3.8 mph6.1 kmh 30.31 in1026.4 mb 0.00 in0.0 mm 0.00 in0.0 mm 0.00 in0.0 mm
08:07 PM 54.5°F12.5°C 47.8°F8.8°C 78% 6.0 mph WSW9.7 kmh WSW 6.9 mph11.1 kmh 30.32 in1026.8 mb 0.00 in0.0 mm 0.00 in0.0 mm 0.00 in0.0 mm
08:02 PM 54.7°F12.6°C 48.0°F8.9°C 78% 6.0 mph WNW9.7 kmh WNW 7.6 mph12.2 kmh 30.32 in1026.8 mb 0.00 in0.0 mm 0.00 in0.0 mm 0.00 in0.0 mm
07:57 PM 54.7°F12.6°C 48.0°F8.9°C 78% 5.4 mph W8.7 kmh W 6.9 mph11.1 kmh 30.32 in1026.8 mb 0.00 in0.0 mm 0.00 in0.0 mm 0.00 in0.0 mm
07:52 PM 54.7°F12.6°C 48.0°F8.9°C 78% 6.0 mph WSW9.7 kmh WSW 7.6 mph12.2 kmh 30.31 in1026.4 mb 0.00 in0.0 mm 0.00 in0.0 mm 0.00 in0.0 mm
07:47 PM 54.7°F12.6°C 48.0°F8.9°C 78% 4.5 mph WSW7.2 kmh WSW 6.0 mph9.7 kmh 30.31 in1026.4 mb 0.00 in0.0 mm 0.00 in0.0 mm 0.00 in0.0 mm
07:42 PM 54.7°F12.6°C 48.0°F8.9°C 78% 4.5 mph SE7.2 kmh SE 6.9 mph11.1 kmh 30.31 in1026.4 mb 0.00 in0.0 mm 0.00 in0.0 mm 0.00 in0.0 mm
07:37 PM 54.5°F12.5°C 47.8°F8.8°C 78% 7.6 mph W12.2 kmh W 8.3 mph13.4 kmh 30.32 in1026.8 mb 0.00 in0.0 mm 0.00 in0.0 mm 0.00 in0.0 mm
07:32 PM 54.5°F12.5°C 48.1°F8.9°C 79% 6.0 mph NW9.7 kmh NW 7.6 mph12.2 kmh 30.32 in1026.8 mb 0.00 in0.0 mm 0.00 in0.0 mm 0.00 in0.0 mm
07:27 PM 54.5°F12.5°C 48.1°F8.9°C 79% 3.8 mph WNW6.1 kmh WNW 4.5 mph7.2 kmh 30.32 in1026.8 mb 0.00 in0.0 mm 0.00 in0.0 mm 0.00 in0.0 mm
07:22 PM 54.5°F12.5°C 48.1°F8.9°C 79% 3.8 mph NW6.1 kmh NW 5.4 mph8.7 kmh 30.32 in1026.8 mb 0.00 in0.0 mm 0.00 in0.0 mm 0.00 in0.0 mm
07:17 PM 54.3°F12.4°C 48.9°F9.4°C 82% 2.2 mph NW3.5 kmh NW 3.8 mph6.1 kmh 30.32 in1026.8 mb 0.00 in0.0 mm 0.00 in0.0 mm 0.00 in0.0 mm
07:12 PM 54.3°F12.4°C 48.9°F9.4°C 82% 2.2 mph W3.5 kmh W 5.4 mph8.7 kmh 30.32 in1026.8 mb 0.00 in0.0 mm 0.00 in0.0 mm 0.00 in0.0 mm
07:07 PM 54.3°F12.4°C 48.9°F9.4°C 82% 5.4 mph W8.7 kmh W 7.6 mph12.2 kmh 30.32 in1026.8 mb 0.00 in0.0 mm 0.00 in0.0 mm 0.00 in0.0 mm
07:02 PM 54.3°F12.4°C 48.6°F9.2°C 81% 5.4 mph W8.7 kmh W 7.6 mph12.2 kmh 30.32 in1026.8 mb 0.00 in0.0 mm 0.00 in0.0 mm 0.00 in0.0 mm
06:57 PM 54.3°F12.4°C 48.6°F9.2°C 81% 6.9 mph W11.1 kmh W 8.3 mph13.4 kmh 30.32 in1026.8 mb 0.00 in0.0 mm 0.00 in0.0 mm 0.00 in0.0 mm
06:52 PM 54.3°F12.4°C 48.6°F9.2°C 81% 3.8 mph W6.1 kmh W 6.0 mph9.7 kmh 30.32 in1026.8 mb 0.00 in0.0 mm 0.00 in0.0 mm 0.00 in0.0 mm
06:47 PM 54.5°F12.5°C 47.8°F8.8°C 78% 2.2 mph WSW3.5 kmh WSW 4.5 mph7.2 kmh 30.32 in1026.8 mb 0.00 in0.0 mm 0.00 in0.0 mm 0.00 in0.0 mm
06:42 PM 54.5°F12.5°C 47.8°F8.8°C 78% 7.6 mph W12.2 kmh W 8.3 mph13.4 kmh 30.32 in1026.8 mb 0.00 in0.0 mm 0.00 in0.0 mm 0.00 in0.0 mm
06:37 PM 54.5°F12.5°C 47.8°F8.8°C 78% 5.4 mph NW8.7 kmh NW 6.9 mph11.1 kmh 30.32 in1026.8 mb 0.00 in0.0 mm 0.00 in0.0 mm 0.00 in0.0 mm
06:32 PM 54.5°F12.5°C 47.8°F8.8°C 78% 3.1 mph W5.0 kmh W 4.5 mph7.2 kmh 30.31 in1026.4 mb 0.00 in0.0 mm 0.00 in0.0 mm 0.00 in0.0 mm
06:27 PM 54.3°F12.4°C 48.3°F9.1°C 80% 5.4 mph S8.7 kmh S 6.0 mph9.7 kmh 30.31 in1026.4 mb 0.00 in0.0 mm 0.00 in0.0 mm 0.00 in0.0 mm
06:22 PM 54.5°F12.5°C 47.4°F8.6°C 77% 6.0 mph W9.7 kmh W 9.2 mph14.8 kmh 30.31 in1026.4 mb 0.00 in0.0 mm 0.00 in0.0 mm 0.00 in0.0 mm
06:17 PM 54.5°F12.5°C 47.4°F8.6°C 77% 10.7 mph NW17.2 kmh NW 13.6 mph21.9 kmh 30.31 in1026.4 mb 0.00 in0.0 mm 0.00 in0.0 mm 0.00 in0.0 mm
06:12 PM 54.5°F12.5°C 47.8°F8.8°C 78% 3.8 mph W6.1 kmh W 8.3 mph13.4 kmh 30.31 in1026.4 mb 0.00 in0.0 mm 0.00 in0.0 mm 0.00 in0.0 mm
06:07 PM 54.5°F12.5°C 47.8°F8.8°C 78% 3.8 mph SW6.1 kmh SW 6.0 mph9.7 kmh 30.31 in1026.4 mb 0.00 in0.0 mm 0.00 in0.0 mm 0.00 in0.0 mm
06:02 PM 54.3°F12.4°C 48.6°F9.2°C 81% 6.0 mph SSE9.7 kmh SSE 8.3 mph13.4 kmh 30.31 in1026.4 mb 0.00 in0.0 mm 0.00 in0.0 mm 0.00 in0.0 mm
05:57 PM 54.3°F12.4°C 48.6°F9.2°C 81% 7.6 mph W12.2 kmh W 9.8 mph15.8 kmh 30.31 in1026.4 mb 0.00 in0.0 mm 0.00 in0.0 mm 0.00 in0.0 mm
05:52 PM 54.3°F12.4°C 48.6°F9.2°C 81% 6.9 mph W11.1 kmh W 7.6 mph12.2 kmh 30.32 in1026.8 mb 0.00 in0.0 mm 0.00 in0.0 mm 0.00 in0.0 mm
05:47 PM 54.3°F12.4°C 48.6°F9.2°C 81% 8.3 mph W13.4 kmh W 14.5 mph23.3 kmh 30.31 in1026.4 mb 0.00 in0.0 mm 0.00 in0.0 mm 0.00 in0.0 mm
05:42 PM 54.3°F12.4°C 48.6°F9.2°C 81% 7.6 mph 12.2 kmh 9.2 mph14.8 kmh 30.31 in1026.4 mb 0.00 in0.0 mm 0.00 in0.0 mm 0.00 in0.0 mm
05:37 PM 54.3°F12.4°C 48.6°F9.2°C 81% 4.5 mph NW7.2 kmh NW 6.9 mph11.1 kmh 30.32 in1026.8 mb 0.00 in0.0 mm 0.00 in0.0 mm 0.00 in0.0 mm
05:32 PM 54.1°F12.3°C 48.1°F8.9°C 80% 6.9 mph SW11.1 kmh SW 9.8 mph15.8 kmh 30.31 in1026.4 mb 0.00 in0.0 mm 0.00 in0.0 mm 0.00 in0.0 mm
05:27 PM 54.1°F12.3°C 48.1°F8.9°C 80% 10.7 mph 17.2 kmh 13.6 mph21.9 kmh 30.31 in1026.4 mb 0.00 in0.0 mm 0.00 in0.0 mm 0.00 in0.0 mm
05:22 PM 54.1°F12.3°C 48.1°F8.9°C 80% 9.2 mph W14.8 kmh W 13.0 mph20.9 kmh 30.31 in1026.4 mb 0.00 in0.0 mm 0.00 in0.0 mm 0.00 in0.0 mm
05:17 PM 54.1°F12.3°C 48.1°F8.9°C 80% 11.4 mph NW18.3 kmh NW 13.6 mph21.9 kmh 30.32 in1026.8 mb 0.00 in0.0 mm 0.00 in0.0 mm 0.00 in0.0 mm
05:12 PM 54.1°F12.3°C 48.1°F8.9°C 80% 7.6 mph W12.2 kmh W 8.3 mph13.4 kmh 30.32 in1026.8 mb 0.00 in0.0 mm 0.00 in0.0 mm 0.00 in0.0 mm
05:07 PM 54.1°F12.3°C 48.1°F8.9°C 80% 6.0 mph W9.7 kmh W 10.7 mph17.2 kmh 30.31 in1026.4 mb 0.00 in0.0 mm 0.00 in0.0 mm 0.00 in0.0 mm
05:02 PM 54.0°F12.2°C 47.9°F8.8°C 80% 5.4 mph NW8.7 kmh NW 8.3 mph13.4 kmh 30.32 in1026.8 mb 0.00 in0.0 mm 0.00 in0.0 mm 0.00 in0.0 mm
04:57 PM 54.0°F12.2°C 47.9°F8.8°C 80% 5.4 mph NW8.7 kmh NW 7.6 mph12.2 kmh 30.31 in1026.4 mb 0.00 in0.0 mm 0.00 in0.0 mm 0.00 in0.0 mm
04:52 PM 53.6°F12.0°C 47.6°F8.7°C 80% 6.0 mph W9.7 kmh W 8.3 mph13.4 kmh 30.32 in1026.8 mb 0.00 in0.0 mm 0.00 in0.0 mm 0.00 in0.0 mm
04:47 PM 53.6°F12.0°C 47.6°F8.7°C 80% 10.7 mph W17.2 kmh W 13.0 mph20.9 kmh 30.32 in1026.8 mb 0.00 in0.0 mm 0.00 in0.0 mm 0.00 in0.0 mm
04:42 PM 53.6°F12.0°C 47.6°F8.7°C 80% 9.2 mph 14.8 kmh 11.4 mph18.3 kmh 30.32 in1026.8 mb 0.00 in0.0 mm 0.00 in0.0 mm 0.00 in0.0 mm
04:37 PM 54.0°F12.2°C 47.9°F8.8°C 80% 5.4 mph SW8.7 kmh SW 10.7 mph17.2 kmh 30.32 in1026.8 mb 0.00 in0.0 mm 0.00 in0.0 mm 0.00 in0.0 mm
04:32 PM 53.8°F12.1°C 47.8°F8.8°C 80% 9.8 mph W15.8 kmh W 11.4 mph18.3 kmh 30.32 in1026.8 mb 0.00 in0.0 mm 0.00 in0.0 mm 0.00 in0.0 mm
04:27 PM 54.0°F12.2°C 47.9°F8.8°C 80% 8.3 mph W13.4 kmh W 13.0 mph20.9 kmh 30.32 in1026.8 mb 0.00 in0.0 mm 0.00 in0.0 mm 0.00 in0.0 mm
04:22 PM 54.1°F12.3°C 47.8°F8.8°C 79% 8.3 mph NW13.4 kmh NW 9.8 mph15.8 kmh 30.31 in1026.4 mb 0.00 in0.0 mm 0.00 in0.0 mm 0.00 in0.0 mm
04:17 PM 54.3°F12.4°C 47.9°F8.8°C 79% 8.3 mph 13.4 kmh 9.8 mph15.8 kmh 30.31 in1026.4 mb 0.00 in0.0 mm 0.00 in0.0 mm 0.00 in0.0 mm
04:12 PM 54.7°F12.6°C 47.3°F8.5°C 76% 4.5 mph E7.2 kmh E 6.0 mph9.7 kmh 30.31 in1026.4 mb 0.00 in0.0 mm 0.00 in0.0 mm 0.00 in0.0 mm
04:07 PM 54.9°F12.7°C 47.4°F8.6°C 76% 6.9 mph 11.1 kmh 7.6 mph12.2 kmh 30.30 in1026.1 mb 0.00 in0.0 mm 0.00 in0.0 mm 0.00 in0.0 mm
04:02 PM 54.7°F12.6°C 47.3°F8.5°C 76% 3.1 mph WSW5.0 kmh WSW 4.5 mph7.2 kmh 30.30 in1026.1 mb 0.00 in0.0 mm 0.00 in0.0 mm 0.00 in0.0 mm
03:57 PM 54.5°F12.5°C 47.1°F8.4°C 76% 3.1 mph NW5.0 kmh NW 4.5 mph7.2 kmh 30.31 in1026.4 mb 0.00 in0.0 mm 0.00 in0.0 mm 0.00 in0.0 mm
03:52 PM 54.3°F12.4°C 47.9°F8.8°C 79% 9.2 mph NNW14.8 kmh NNW 10.7 mph17.2 kmh 30.32 in1026.8 mb 0.00 in0.0 mm 0.00 in0.0 mm 0.00 in0.0 mm
03:47 PM 54.7°F12.6°C 46.9°F8.3°C 75% 7.6 mph NW12.2 kmh NW 9.8 mph15.8 kmh 30.31 in1026.4 mb 0.00 in0.0 mm 0.00 in0.0 mm 0.00 in0.0 mm
03:42 PM 54.9°F12.7°C 46.7°F8.2°C 74% 8.3 mph NW13.4 kmh NW 9.8 mph15.8 kmh 30.31 in1026.4 mb 0.00 in0.0 mm 0.00 in0.0 mm 0.00 in0.0 mm
03:37 PM 55.2°F12.9°C 47.1°F8.4°C 74% 7.6 mph NNW12.2 kmh NNW 9.2 mph14.8 kmh 30.31 in1026.4 mb 0.00 in0.0 mm 0.00 in0.0 mm 0.00 in0.0 mm
03:32 PM 55.4°F13.0°C 47.6°F8.7°C 75% 6.9 mph W11.1 kmh W 9.8 mph15.8 kmh 30.32 in1026.8 mb 0.00 in0.0 mm 0.00 in0.0 mm 0.00 in0.0 mm
03:27 PM 54.9°F12.7°C 46.7°F8.2°C 74% 7.6 mph NW12.2 kmh NW 9.2 mph14.8 kmh 30.31 in1026.4 mb 0.00 in0.0 mm 0.00 in0.0 mm 0.00 in0.0 mm
03:22 PM 55.2°F12.9°C 46.7°F8.2°C 73% 10.7 mph NW17.2 kmh NW 11.4 mph18.3 kmh 30.32 in1026.8 mb 0.00 in0.0 mm 0.00 in0.0 mm 0.00 in0.0 mm
03:17 PM 55.4°F13.0°C 46.9°F8.3°C 73% 10.7 mph NW17.2 kmh NW 12.1 mph19.5 kmh 30.31 in1026.4 mb 0.00 in0.0 mm 0.00 in0.0 mm 0.00 in0.0 mm
03:12 PM 55.6°F13.1°C 47.1°F8.4°C 73% 6.9 mph S11.1 kmh S 9.2 mph14.8 kmh 30.32 in1026.8 mb 0.00 in0.0 mm 0.00 in0.0 mm 0.00 in0.0 mm
03:07 PM 55.4°F13.0°C 46.9°F8.3°C 73% 8.3 mph NW13.4 kmh NW 11.4 mph18.3 kmh 30.34 in1027.4 mb 0.00 in0.0 mm 0.00 in0.0 mm 0.00 in0.0 mm
03:02 PM 55.4°F13.0°C 46.9°F8.3°C 73% 13.0 mph 20.9 kmh 13.6 mph21.9 kmh 30.32 in1026.8 mb 0.00 in0.0 mm 0.00 in0.0 mm 0.00 in0.0 mm
02:57 PM 55.4°F13.0°C 46.5°F8.1°C 72% 10.7 mph NNW17.2 kmh NNW 11.4 mph18.3 kmh 30.32 in1026.8 mb 0.00 in0.0 mm 0.00 in0.0 mm 0.00 in0.0 mm
02:52 PM 55.9°F13.3°C 46.7°F8.2°C 71% 11.4 mph 18.3 kmh 12.1 mph19.5 kmh 30.32 in1026.8 mb 0.00 in0.0 mm 0.00 in0.0 mm 0.00 in0.0 mm
02:47 PM 56.3°F13.5°C 47.0°F8.3°C 71% 8.3 mph NW13.4 kmh NW 9.8 mph15.8 kmh 30.33 in1027.1 mb 0.00 in0.0 mm 0.00 in0.0 mm 0.00 in0.0 mm
02:42 PM 57.0°F13.9°C 47.3°F8.5°C 70% 7.6 mph NW12.2 kmh NW 9.2 mph14.8 kmh 30.33 in1027.1 mb 0.00 in0.0 mm 0.00 in0.0 mm 0.00 in0.0 mm
02:37 PM 57.2°F14.0°C 46.7°F8.2°C 68% 7.6 mph NNW12.2 kmh NNW 8.3 mph13.4 kmh 30.33 in1027.1 mb 0.00 in0.0 mm 0.00 in0.0 mm 0.00 in0.0 mm
02:32 PM 58.6°F14.8°C 48.9°F9.4°C 70% 5.4 mph NNW8.7 kmh NNW 7.6 mph12.2 kmh 30.32 in1026.8 mb 0.00 in0.0 mm 0.00 in0.0 mm 0.00 in0.0 mm
02:27 PM 59.0°F15.0°C 49.2°F9.6°C 70% 6.0 mph NW9.7 kmh NW 7.6 mph12.2 kmh 30.33 in1027.1 mb 0.00 in0.0 mm 0.00 in0.0 mm 0.00 in0.0 mm
02:22 PM 58.5°F14.7°C 48.7°F9.3°C 70% 3.1 mph 5.0 kmh 3.8 mph6.1 kmh 30.33 in1027.1 mb 0.00 in0.0 mm 0.00 in0.0 mm 0.00 in0.0 mm
02:17 PM 58.3°F14.6°C 48.5°F9.2°C 70% 3.1 mph NW5.0 kmh NW 3.8 mph6.1 kmh 30.33 in1027.1 mb 0.00 in0.0 mm 0.00 in0.0 mm 0.00 in0.0 mm
02:12 PM 59.0°F15.0°C 50.0°F10.0°C 72% 0.7 mph SW1.1 kmh SW 1.6 mph2.6 kmh 30.34 in1027.4 mb 0.00 in0.0 mm 0.00 in0.0 mm 0.00 in0.0 mm
02:07 PM 57.2°F14.0°C 50.1°F10.1°C 77% 1.6 mph 2.6 kmh 2.2 mph3.5 kmh 30.34 in1027.4 mb 0.00 in0.0 mm 0.00 in0.0 mm 0.00 in0.0 mm
02:02 PM 57.2°F14.0°C 50.1°F10.1°C 77% 1.6 mph 2.6 kmh 2.2 mph3.5 kmh 30.35 in1027.8 mb 0.00 in0.0 mm 0.00 in0.0 mm 0.00 in0.0 mm
01:57 PM 56.7°F13.7°C 49.5°F9.7°C 77% 1.6 mph 2.6 kmh 2.2 mph3.5 kmh 30.35 in1027.8 mb 0.00 in0.0 mm 0.00 in0.0 mm 0.00 in0.0 mm
01:52 PM 55.2°F12.9°C 48.1°F8.9°C 77% 2.2 mph SW3.5 kmh SW 3.1 mph5.0 kmh 30.36 in1028.1 mb 0.00 in0.0 mm 0.00 in0.0 mm 0.00 in0.0 mm
01:47 PM 54.5°F12.5°C 47.4°F8.6°C 77% 2.2 mph SW3.5 kmh SW 3.1 mph5.0 kmh 30.36 in1028.1 mb 0.00 in0.0 mm 0.00 in0.0 mm 0.00 in0.0 mm
01:42 PM 54.1°F12.3°C 48.1°F8.9°C 80% 3.1 mph SW5.0 kmh SW 3.8 mph6.1 kmh 30.36 in1028.1 mb 0.00 in0.0 mm 0.00 in0.0 mm 0.00 in0.0 mm
01:37 PM 54.1°F12.3°C 48.4°F9.1°C 81% 3.8 mph W6.1 kmh W 6.0 mph9.7 kmh 30.37 in1028.4 mb 0.00 in0.0 mm 0.00 in0.0 mm 0.00 in0.0 mm
01:32 PM 53.6°F12.0°C 47.9°F8.8°C 81% 5.4 mph SW8.7 kmh SW 6.0 mph9.7 kmh 30.37 in1028.4 mb 0.00 in0.0 mm 0.00 in0.0 mm 0.00 in0.0 mm
01:27 PM 53.4°F11.9°C 48.1°F8.9°C 82% 5.4 mph W8.7 kmh W 6.9 mph11.1 kmh 30.37 in1028.4 mb 0.00 in0.0 mm 0.00 in0.0 mm 0.00 in0.0 mm
01:22 PM 53.2°F11.8°C 48.2°F9.0°C 83% 3.8 mph W6.1 kmh W 5.4 mph8.7 kmh 30.38 in1028.8 mb 0.00 in0.0 mm 0.00 in0.0 mm 0.00 in0.0 mm
01:17 PM 53.1°F11.7°C 48.0°F8.9°C 83% 6.9 mph W11.1 kmh W 8.3 mph13.4 kmh 30.39 in1029.1 mb 0.00 in0.0 mm 0.00 in0.0 mm 0.00 in0.0 mm
01:12 PM 52.7°F11.5°C 48.0°F8.9°C 84% 3.8 mph W6.1 kmh W 6.0 mph9.7 kmh 30.39 in1029.1 mb 0.00 in0.0 mm 0.00 in0.0 mm 0.00 in0.0 mm
01:07 PM 52.5°F11.4°C 48.5°F9.2°C 86% 9.8 mph W15.8 kmh W 11.4 mph18.3 kmh 30.39 in1029.1 mb 0.00 in0.0 mm 0.00 in0.0 mm 0.00 in0.0 mm
01:02 PM 52.5°F11.4°C 48.5°F9.2°C 86% 9.8 mph W15.8 kmh W 11.4 mph18.3 kmh 30.41 in1029.8 mb 0.00 in0.0 mm 0.00 in0.0 mm 0.00 in0.0 mm
12:57 PM 52.5°F11.4°C 48.5°F9.2°C 86% 3.1 mph NW5.0 kmh NW 4.5 mph7.2 kmh 30.40 in1029.5 mb 0.00 in0.0 mm 0.00 in0.0 mm 0.00 in0.0 mm
12:52 PM 52.2°F11.2°C 48.4°F9.1°C 87% 9.8 mph WNW15.8 kmh WNW 11.4 mph18.3 kmh 30.41 in1029.8 mb 0.00 in0.0 mm 0.00 in0.0 mm 0.00 in0.0 mm
12:47 PM 52.0°F11.1°C 48.5°F9.2°C 88% 5.4 mph NW8.7 kmh NW 6.9 mph11.1 kmh 30.41 in1029.8 mb 0.00 in0.0 mm 0.00 in0.0 mm 0.00 in0.0 mm
12:42 PM 51.6°F10.9°C 48.8°F9.3°C 90% 8.3 mph W13.4 kmh W 9.8 mph15.8 kmh 30.41 in1029.8 mb 0.00 in0.0 mm 0.00 in0.0 mm 0.00 in0.0 mm
12:37 PM 51.6°F10.9°C 49.1°F9.5°C 91% 13.0 mph WNW20.9 kmh WNW 15.2 mph24.5 kmh 30.41 in1029.8 mb 0.00 in0.0 mm 0.00 in0.0 mm 0.00 in0.0 mm
12:32 PM 51.6°F10.9°C 49.1°F9.5°C 91% 6.0 mph W9.7 kmh W 6.9 mph11.1 kmh 30.41 in1029.8 mb 0.00 in0.0 mm 0.00 in0.0 mm 0.00 in0.0 mm
12:27 PM 51.4°F10.8°C 49.2°F9.6°C 92% 4.5 mph S7.2 kmh S 6.0 mph9.7 kmh 30.41 in1029.8 mb 0.00 in0.0 mm 0.00 in0.0 mm 0.00 in0.0 mm
12:22 PM 51.3°F10.7°C 49.3°F9.6°C 93% 7.6 mph NW12.2 kmh NW 10.7 mph17.2 kmh 30.42 in1030.1 mb 0.00 in0.0 mm 0.00 in0.0 mm 0.00 in0.0 mm
12:17 PM 51.3°F10.7°C 49.6°F9.8°C 94% 5.4 mph W8.7 kmh W 6.0 mph9.7 kmh 30.42 in1030.1 mb 0.00 in0.0 mm 0.00 in0.0 mm 0.00 in0.0 mm
12:12 PM 51.1°F10.6°C 49.7°F9.8°C 95% 9.2 mph W14.8 kmh W 10.7 mph17.2 kmh 30.42 in1030.1 mb 0.00 in0.0 mm 0.00 in0.0 mm 0.00 in0.0 mm
12:07 PM 50.9°F10.5°C 50.1°F10.1°C 97% 8.3 mph E13.4 kmh E 9.2 mph14.8 kmh 30.42 in1030.1 mb 0.00 in0.0 mm 0.00 in0.0 mm 0.00 in0.0 mm
12:02 PM 50.7°F10.4°C 50.2°F10.1°C 98% 9.8 mph NW15.8 kmh NW 11.4 mph18.3 kmh 30.43 in1030.5 mb 0.00 in0.0 mm 0.00 in0.0 mm 0.00 in0.0 mm
11:57 AM 50.7°F10.4°C 50.4°F10.2°C 99% 8.3 mph W13.4 kmh W 9.8 mph15.8 kmh 30.43 in1030.5 mb 0.00 in0.0 mm 0.00 in0.0 mm 0.00 in0.0 mm
11:52 AM 50.5°F10.3°C 50.3°F10.2°C 99% 5.4 mph W8.7 kmh W 7.6 mph12.2 kmh 30.43 in1030.5 mb 0.00 in0.0 mm 0.00 in0.0 mm 0.00 in0.0 mm
11:47 AM 50.5°F10.3°C 50.3°F10.2°C 99% 6.9 mph W11.1 kmh W 10.7 mph17.2 kmh 30.43 in1030.5 mb 0.00 in0.0 mm 0.00 in0.0 mm 0.00 in0.0 mm
11:42 AM 50.4°F10.2°C 50.1°F10.1°C 99% 9.8 mph NW15.8 kmh NW 11.4 mph18.3 kmh 30.43 in1030.5 mb 0.00 in0.0 mm 0.00 in0.0 mm 0.00 in0.0 mm
11:37 AM 50.4°F10.2°C 50.1°F10.1°C 99% 13.0 mph WSW20.9 kmh WSW 14.5 mph23.3 kmh 30.43 in1030.5 mb 0.00 in0.0 mm 0.00 in0.0 mm 0.00 in0.0 mm
11:32 AM 50.4°F10.2°C 50.1°F10.1°C 99% 13.6 mph NW21.9 kmh NW 15.2 mph24.5 kmh 30.43 in1030.5 mb 0.00 in0.0 mm 0.00 in0.0 mm 0.00 in0.0 mm
11:27 AM 50.5°F10.3°C 50.3°F10.2°C 99% 9.8 mph NW15.8 kmh NW 13.0 mph20.9 kmh 30.43 in1030.5 mb 0.00 in0.0 mm 0.00 in0.0 mm 0.00 in0.0 mm
11:22 AM 50.5°F10.3°C 50.3°F10.2°C 99% 8.3 mph W13.4 kmh W 9.8 mph15.8 kmh 30.43 in1030.5 mb 0.00 in0.0 mm 0.00 in0.0 mm 0.00 in0.0 mm
11:17 AM 50.5°F10.3°C 50.3°F10.2°C 99% 8.3 mph NW13.4 kmh NW 9.8 mph15.8 kmh 30.43 in1030.5 mb 0.00 in0.0 mm 0.00 in0.0 mm 0.00 in0.0 mm
11:12 AM 50.4°F10.2°C 50.1°F10.1°C 99% 3.8 mph W6.1 kmh W 5.4 mph8.7 kmh 30.43 in1030.5 mb 0.00 in0.0 mm 0.00 in0.0 mm 0.00 in0.0 mm
11:07 AM 50.2°F10.1°C 49.9°F9.9°C 99% 6.0 mph WNW9.7 kmh WNW 7.6 mph12.2 kmh 30.43 in1030.5 mb 0.00 in0.0 mm 0.00 in0.0 mm 0.00 in0.0 mm
11:02 AM 50.0°F10.0°C 49.7°F9.8°C 99% 6.9 mph SW11.1 kmh SW 8.3 mph13.4 kmh 30.42 in1030.1 mb 0.00 in0.0 mm 0.00 in0.0 mm 0.00 in0.0 mm
10:57 AM 50.0°F10.0°C 49.7°F9.8°C 99% 6.0 mph W9.7 kmh W 8.3 mph13.4 kmh 30.42 in1030.1 mb 0.00 in0.0 mm 0.00 in0.0 mm 0.00 in0.0 mm
10:52 AM 49.8°F9.9°C 49.5°F9.7°C 99% 5.4 mph NW8.7 kmh NW 9.2 mph14.8 kmh 30.42 in1030.1 mb 0.00 in0.0 mm 0.00 in0.0 mm 0.00 in0.0 mm
10:47 AM 49.5°F9.7°C 49.2°F9.6°C 99% 6.0 mph W9.7 kmh W 7.6 mph12.2 kmh 30.42 in1030.1 mb 0.00 in0.0 mm 0.00 in0.0 mm 0.00 in0.0 mm
10:42 AM 49.3°F9.6°C 49.0°F9.4°C 99% 3.8 mph WSW6.1 kmh WSW 5.4 mph8.7 kmh 30.42 in1030.1 mb 0.00 in0.0 mm 0.00 in0.0 mm 0.00 in0.0 mm
10:37 AM 49.1°F9.5°C 48.8°F9.3°C 99% 4.5 mph W7.2 kmh W 6.0 mph9.7 kmh 30.41 in1029.8 mb 0.00 in0.0 mm 0.00 in0.0 mm 0.00 in0.0 mm
10:32 AM 48.9°F9.4°C 48.7°F9.3°C 99% 6.9 mph W11.1 kmh W 7.6 mph12.2 kmh 30.43 in1030.5 mb 0.00 in0.0 mm 0.00 in0.0 mm 0.00 in0.0 mm
10:27 AM 48.6°F9.2°C 48.3°F9.1°C 99% 7.6 mph WSW12.2 kmh WSW 9.2 mph14.8 kmh 30.42 in1030.1 mb 0.00 in0.0 mm 0.00 in0.0 mm 0.00 in0.0 mm
10:22 AM 48.0°F8.9°C 47.8°F8.8°C 99% 6.9 mph SW11.1 kmh SW 7.6 mph12.2 kmh 30.42 in1030.1 mb 0.00 in0.0 mm 0.00 in0.0 mm 0.00 in0.0 mm
10:17 AM 47.8°F8.8°C 47.6°F8.7°C 99% 7.6 mph WSW12.2 kmh WSW 9.8 mph15.8 kmh 30.42 in1030.1 mb 0.00 in0.0 mm 0.00 in0.0 mm 0.00 in0.0 mm
10:12 AM 47.7°F8.7°C 47.4°F8.6°C 99% 4.5 mph WSW7.2 kmh WSW 6.0 mph9.7 kmh 30.42 in1030.1 mb 0.00 in0.0 mm 0.00 in0.0 mm 0.00 in0.0 mm
10:07 AM 46.9°F8.3°C 46.7°F8.2°C 99% 6.0 mph SW9.7 kmh SW 7.6 mph12.2 kmh 30.42 in1030.1 mb 0.00 in0.0 mm 0.00 in0.0 mm 0.00 in0.0 mm
10:02 AM 46.9°F8.3°C 46.7°F8.2°C 99% 6.0 mph SW9.7 kmh SW 7.6 mph12.2 kmh 30.42 in1030.1 mb 0.00 in0.0 mm 0.00 in0.0 mm 0.00 in0.0 mm
09:57 AM 46.8°F8.2°C 46.5°F8.1°C 99% 7.6 mph WSW12.2 kmh WSW 8.3 mph13.4 kmh 30.42 in1030.1 mb 0.00 in0.0 mm 0.00 in0.0 mm 0.00 in0.0 mm
09:52 AM 46.2°F7.9°C 46.0°F7.8°C 99% 3.8 mph SW6.1 kmh SW 4.5 mph7.2 kmh 30.42 in1030.1 mb 0.00 in0.0 mm 0.00 in0.0 mm 0.00 in0.0 mm
09:47 AM 45.7°F7.6°C 45.4°F7.4°C 99% 4.5 mph SW7.2 kmh SW 5.4 mph8.7 kmh 30.42 in1030.1 mb 0.00 in0.0 mm 0.00 in0.0 mm 0.00 in0.0 mm
09:42 AM 45.3°F7.4°C 45.1°F7.3°C 99% 4.5 mph W7.2 kmh W 6.0 mph9.7 kmh 30.42 in1030.1 mb 0.00 in0.0 mm 0.00 in0.0 mm 0.00 in0.0 mm
09:37 AM 44.8°F7.1°C 44.5°F6.9°C 99% 3.8 mph SW6.1 kmh SW 4.5 mph7.2 kmh 30.41 in1029.8 mb 0.00 in0.0 mm 0.00 in0.0 mm 0.00 in0.0 mm
09:32 AM 44.2°F6.8°C 44.0°F6.7°C 99% 5.4 mph SW8.7 kmh SW 6.0 mph9.7 kmh 30.42 in1030.1 mb 0.00 in0.0 mm 0.00 in0.0 mm 0.00 in0.0 mm
09:27 AM 44.1°F6.7°C 43.8°F6.6°C 99% 4.5 mph SW7.2 kmh SW 6.0 mph9.7 kmh 30.41 in1029.8 mb 0.00 in0.0 mm 0.00 in0.0 mm 0.00 in0.0 mm
09:22 AM 44.2°F6.8°C 44.0°F6.7°C 99% 5.4 mph SW8.7 kmh SW 6.0 mph9.7 kmh 30.41 in1029.8 mb 0.00 in0.0 mm 0.00 in0.0 mm 0.00 in0.0 mm
09:17 AM 44.4°F6.9°C 44.2°F6.8°C 99% 2.2 mph WSW3.5 kmh WSW 3.1 mph5.0 kmh 30.41 in1029.8 mb 0.00 in0.0 mm 0.00 in0.0 mm 0.00 in0.0 mm
09:12 AM 44.6°F7.0°C 44.3°F6.8°C 99% 2.2 mph S3.5 kmh S 3.1 mph5.0 kmh 30.41 in1029.8 mb 0.00 in0.0 mm 0.00 in0.0 mm 0.00 in0.0 mm
09:07 AM 44.4°F6.9°C 44.2°F6.8°C 99% 3.8 mph SW6.1 kmh SW 4.5 mph7.2 kmh 30.42 in1030.1 mb 0.00 in0.0 mm 0.00 in0.0 mm 0.00 in0.0 mm
09:02 AM 44.4°F6.9°C 44.2°F6.8°C 99% 3.8 mph SW6.1 kmh SW 4.5 mph7.2 kmh 30.41 in1029.8 mb 0.00 in0.0 mm 0.00 in0.0 mm 0.00 in0.0 mm
08:57 AM 44.6°F7.0°C 44.3°F6.8°C 99% 4.5 mph WSW7.2 kmh WSW 5.4 mph8.7 kmh 30.41 in1029.8 mb 0.00 in0.0 mm 0.00 in0.0 mm 0.00 in0.0 mm
08:52 AM 44.8°F7.1°C 44.5°F6.9°C 99% 5.4 mph NW8.7 kmh NW 6.9 mph11.1 kmh 30.41 in1029.8 mb 0.00 in0.0 mm 0.00 in0.0 mm 0.00 in0.0 mm
08:47 AM 45.1°F7.3°C 44.9°F7.2°C 99% 0.7 mph W1.1 kmh W 2.2 mph3.5 kmh 30.41 in1029.8 mb 0.00 in0.0 mm 0.00 in0.0 mm 0.00 in0.0 mm
08:42 AM 45.3°F7.4°C 45.1°F7.3°C 99% Calm Calm 1.6 mph2.6 kmh 30.40 in1029.5 mb 0.00 in0.0 mm 0.00 in0.0 mm 0.00 in0.0 mm
08:37 AM 45.3°F7.4°C 45.1°F7.3°C 99% 0.7 mph SW1.1 kmh SW 1.6 mph2.6 kmh 30.40 in1029.5 mb 0.00 in0.0 mm 0.00 in0.0 mm 0.00 in0.0 mm
08:32 AM 45.3°F7.4°C 45.1°F7.3°C 99% 1.6 mph W2.6 kmh W 3.1 mph5.0 kmh 30.39 in1029.1 mb 0.00 in0.0 mm 0.00 in0.0 mm 0.00 in0.0 mm
08:27 AM 45.3°F7.4°C 45.1°F7.3°C 99% Calm Calm 0.7 mph1.1 kmh 30.39 in1029.1 mb 0.00 in0.0 mm 0.00 in0.0 mm 0.00 in0.0 mm
08:22 AM 45.1°F7.3°C 44.9°F7.2°C 99% 0.7 mph SE1.1 kmh SE 1.6 mph2.6 kmh 30.39 in1029.1 mb 0.00 in0.0 mm 0.00 in0.0 mm 0.00 in0.0 mm
08:17 AM 45.1°F7.3°C 44.9°F7.2°C 99% 0.7 mph SE1.1 kmh SE 1.6 mph2.6 kmh 30.39 in1029.1 mb 0.00 in0.0 mm 0.00 in0.0 mm 0.00 in0.0 mm
08:12 AM 45.3°F7.4°C 45.1°F7.3°C 99% 0.7 mph SE1.1 kmh SE 1.6 mph2.6 kmh 30.39 in1029.1 mb 0.00 in0.0 mm 0.00 in0.0 mm 0.00 in0.0 mm
08:07 AM 45.5°F7.5°C 45.2°F7.3°C 99% 0.7 mph SE1.1 kmh SE 1.6 mph2.6 kmh 30.39 in1029.1 mb 0.00 in0.0 mm 0.00 in0.0 mm 0.00 in0.0 mm
08:02 AM 45.3°F7.4°C 45.1°F7.3°C 99% 0.7 mph SE1.1 kmh SE 1.6 mph2.6 kmh 30.39 in1029.1 mb 0.00 in0.0 mm 0.00 in0.0 mm 0.00 in0.0 mm
07:57 AM 45.3°F7.4°C 45.1°F7.3°C 99% 0.7 mph SW1.1 kmh SW 1.6 mph2.6 kmh 30.40 in1029.5 mb 0.00 in0.0 mm 0.00 in0.0 mm 0.00 in0.0 mm
07:52 AM 45.5°F7.5°C 45.0°F7.2°C 98% 1.6 mph S2.6 kmh S 1.6 mph2.6 kmh 30.40 in1029.5 mb 0.00 in0.0 mm 0.00 in0.0 mm 0.00 in0.0 mm
07:47 AM 45.5°F7.5°C 45.0°F7.2°C 98% Calm Calm 0.7 mph1.1 kmh 30.39 in1029.1 mb 0.00 in0.0 mm 0.00 in0.0 mm 0.00 in0.0 mm
07:42 AM 45.3°F7.4°C 45.1°F7.3°C 99% 0.7 mph SW1.1 kmh SW 1.6 mph2.6 kmh 30.40 in1029.5 mb 0.00 in0.0 mm 0.00 in0.0 mm 0.00 in0.0 mm
07:37 AM 45.3°F7.4°C 45.1°F7.3°C 99% 1.6 mph SW2.6 kmh SW 2.2 mph3.5 kmh 30.39 in1029.1 mb 0.00 in0.0 mm 0.00 in0.0 mm 0.00 in0.0 mm
07:32 AM 45.3°F7.4°C 45.1°F7.3°C 99% 2.2 mph SW3.5 kmh SW 3.1 mph5.0 kmh 30.40 in1029.5 mb 0.00 in0.0 mm 0.00 in0.0 mm 0.00 in0.0 mm
07:27 AM 45.5°F7.5°C 45.0°F7.2°C 98% 2.2 mph SW3.5 kmh SW 3.1 mph5.0 kmh 30.40 in1029.5 mb 0.00 in0.0 mm 0.00 in0.0 mm 0.00 in0.0 mm
07:22 AM 45.7°F7.6°C 45.1°F7.3°C 98% 2.2 mph SW3.5 kmh SW 3.1 mph5.0 kmh 30.40 in1029.5 mb 0.00 in0.0 mm 0.00 in0.0 mm 0.00 in0.0 mm
07:17 AM 45.9°F7.7°C 45.3°F7.4°C 98% 1.6 mph SW2.6 kmh SW 3.1 mph5.0 kmh 30.40 in1029.5 mb 0.00 in0.0 mm 0.00 in0.0 mm 0.00 in0.0 mm
07:12 AM 46.0°F7.8°C 45.8°F7.7°C 99% 1.6 mph W2.6 kmh W 1.6 mph2.6 kmh 30.40 in1029.5 mb 0.00 in0.0 mm 0.00 in0.0 mm 0.00 in0.0 mm
07:07 AM 46.2°F7.9°C 46.0°F7.8°C 99% 2.2 mph S3.5 kmh S 3.1 mph5.0 kmh 30.40 in1029.5 mb 0.00 in0.0 mm 0.00 in0.0 mm 0.00 in0.0 mm
07:02 AM 46.0°F7.8°C 45.5°F7.5°C 98% Calm Calm 0.7 mph1.1 kmh 30.41 in1029.8 mb 0.00 in0.0 mm 0.00 in0.0 mm 0.00 in0.0 mm
06:57 AM 46.2°F7.9°C 46.0°F7.8°C 99% Calm Calm 0.7 mph1.1 kmh 30.40 in1029.5 mb 0.00 in0.0 mm 0.00 in0.0 mm 0.00 in0.0 mm
06:52 AM 46.4°F8.0°C 46.1°F7.8°C 99% Calm Calm 0.7 mph1.1 kmh 30.40 in1029.5 mb 0.00 in0.0 mm 0.00 in0.0 mm 0.00 in0.0 mm
06:47 AM 46.4°F8.0°C 46.1°F7.8°C 99% Calm Calm 0.7 mph1.1 kmh 30.41 in1029.8 mb 0.00 in0.0 mm 0.00 in0.0 mm 0.00 in0.0 mm
06:42 AM 46.4°F8.0°C 46.1°F7.8°C 99% 0.7 mph SE1.1 kmh SE 1.6 mph2.6 kmh 30.40 in1029.5 mb 0.00 in0.0 mm 0.00 in0.0 mm 0.00 in0.0 mm
06:37 AM 46.4°F8.0°C 45.9°F7.7°C 98% 0.7 mph E1.1 kmh E 2.2 mph3.5 kmh 30.42 in1030.1 mb 0.00 in0.0 mm 0.00 in0.0 mm 0.00 in0.0 mm
06:32 AM 46.4°F8.0°C 45.9°F7.7°C 98% Calm Calm 0.7 mph1.1 kmh 30.41 in1029.8 mb 0.00 in0.0 mm 0.00 in0.0 mm 0.00 in0.0 mm
06:27 AM 46.4°F8.0°C 45.9°F7.7°C 98% Calm Calm 0.7 mph1.1 kmh 30.41 in1029.8 mb 0.00 in0.0 mm 0.00 in0.0 mm 0.00 in0.0 mm
06:22 AM 46.6°F8.1°C 46.0°F7.8°C 98% 1.6 mph E2.6 kmh E 2.2 mph3.5 kmh 30.42 in1030.1 mb 0.00 in0.0 mm 0.00 in0.0 mm 0.00 in0.0 mm
06:17 AM 46.6°F8.1°C 46.0°F7.8°C 98% 0.7 mph SE1.1 kmh SE 1.6 mph2.6 kmh 30.42 in1030.1 mb 0.00 in0.0 mm 0.00 in0.0 mm 0.00 in0.0 mm
06:12 AM 46.4°F8.0°C 45.9°F7.7°C 98% 0.7 mph SW1.1 kmh SW 1.6 mph2.6 kmh 30.41 in1029.8 mb 0.00 in0.0 mm 0.00 in0.0 mm 0.00 in0.0 mm
06:07 AM 46.4°F8.0°C 45.9°F7.7°C 98% 1.6 mph SW2.6 kmh SW 2.2 mph3.5 kmh 30.41 in1029.8 mb 0.00 in0.0 mm 0.00 in0.0 mm 0.00 in0.0 mm
06:02 AM 46.4°F8.0°C 45.9°F7.7°C 98% 1.6 mph SW2.6 kmh SW 2.2 mph3.5 kmh 30.42 in1030.1 mb 0.00 in0.0 mm 0.00 in0.0 mm 0.00 in0.0 mm
05:57 AM 46.4°F8.0°C 45.9°F7.7°C 98% 3.8 mph SW6.1 kmh SW 4.5 mph7.2 kmh 30.42 in1030.1 mb 0.00 in0.0 mm 0.00 in0.0 mm 0.00 in0.0 mm
05:52 AM 46.4°F8.0°C 45.9°F7.7°C 98% 3.1 mph SSW5.0 kmh SSW 3.8 mph6.1 kmh 30.42 in1030.1 mb 0.00 in0.0 mm 0.00 in0.0 mm 0.00 in0.0 mm
05:47 AM 46.6°F8.1°C 46.0°F7.8°C 98% 3.8 mph SW6.1 kmh SW 4.5 mph7.2 kmh 30.42 in1030.1 mb 0.00 in0.0 mm 0.00 in0.0 mm 0.00 in0.0 mm
05:42 AM 46.8°F8.2°C 46.2°F7.9°C 98% 4.5 mph SW7.2 kmh SW 4.5 mph7.2 kmh 30.43 in1030.5 mb 0.00 in0.0 mm 0.00 in0.0 mm 0.00 in0.0 mm
05:37 AM 46.8°F8.2°C 46.2°F7.9°C 98% 2.2 mph SSW3.5 kmh SSW 3.8 mph6.1 kmh 30.43 in1030.5 mb 0.00 in0.0 mm 0.00 in0.0 mm 0.00 in0.0 mm
05:32 AM 46.8°F8.2°C 46.2°F7.9°C 98% 3.1 mph SW5.0 kmh SW 4.5 mph7.2 kmh 30.43 in1030.5 mb 0.00 in0.0 mm 0.00 in0.0 mm 0.00 in0.0 mm
05:27 AM 46.9°F8.3°C 46.1°F7.8°C 97% 3.8 mph SW6.1 kmh SW 4.5 mph7.2 kmh 30.44 in1030.8 mb 0.00 in0.0 mm 0.00 in0.0 mm 0.00 in0.0 mm
05:22 AM 46.9°F8.3°C 46.1°F7.8°C 97% 3.1 mph S5.0 kmh S 3.8 mph6.1 kmh 30.43 in1030.5 mb 0.00 in0.0 mm 0.00 in0.0 mm 0.00 in0.0 mm
05:17 AM 46.9°F8.3°C 46.1°F7.8°C 97% 3.1 mph SW5.0 kmh SW 3.8 mph6.1 kmh 30.44 in1030.8 mb 0.00 in0.0 mm 0.00 in0.0 mm 0.00 in0.0 mm
05:12 AM 47.1°F8.4°C 46.3°F7.9°C 97% 4.5 mph SW7.2 kmh SW 5.4 mph8.7 kmh 30.43 in1030.5 mb 0.00 in0.0 mm 0.00 in0.0 mm 0.00 in0.0 mm
05:07 AM 47.3°F8.5°C 46.5°F8.1°C 97% 3.1 mph SW5.0 kmh SW 4.5 mph7.2 kmh 30.44 in1030.8 mb 0.00 in0.0 mm 0.00 in0.0 mm 0.00 in0.0 mm
05:02 AM 47.5°F8.6°C 46.7°F8.2°C 97% 3.1 mph WSW5.0 kmh WSW 3.8 mph6.1 kmh 30.44 in1030.8 mb 0.00 in0.0 mm 0.00 in0.0 mm 0.00 in0.0 mm
04:57 AM 47.7°F8.7°C 46.9°F8.3°C 97% 1.6 mph W2.6 kmh W 3.1 mph5.0 kmh 30.43 in1030.5 mb 0.00 in0.0 mm 0.00 in0.0 mm 0.00 in0.0 mm
04:52 AM 47.7°F8.7°C 46.9°F8.3°C 97% 2.2 mph SW3.5 kmh SW 3.1 mph5.0 kmh 30.45 in1031.2 mb 0.00 in0.0 mm 0.00 in0.0 mm 0.00 in0.0 mm
04:47 AM 47.7°F8.7°C 46.9°F8.3°C 97% 0.7 mph NW1.1 kmh NW 1.6 mph2.6 kmh 30.44 in1030.8 mb 0.00 in0.0 mm 0.00 in0.0 mm 0.00 in0.0 mm
04:42 AM 47.7°F8.7°C 46.9°F8.3°C 97% Calm Calm 0.7 mph1.1 kmh 30.44 in1030.8 mb 0.00 in0.0 mm 0.00 in0.0 mm 0.00 in0.0 mm
04:37 AM 47.7°F8.7°C 46.9°F8.3°C 97% 0.7 mph SW1.1 kmh SW 1.6 mph2.6 kmh 30.45 in1031.2 mb 0.00 in0.0 mm 0.00 in0.0 mm 0.00 in0.0 mm
04:32 AM 47.7°F8.7°C 46.9°F8.3°C 97% 1.6 mph WSW2.6 kmh WSW 2.2 mph3.5 kmh 30.45 in1031.2 mb 0.00 in0.0 mm 0.00 in0.0 mm 0.00 in0.0 mm
04:27 AM 47.5°F8.6°C 46.7°F8.2°C 97% Calm Calm -- 30.45 in1031.2 mb 0.00 in0.0 mm 0.00 in0.0 mm 0.00 in0.0 mm
04:22 AM 47.5°F8.6°C 46.4°F8.0°C 96% 3.1 mph SW5.0 kmh SW 3.8 mph6.1 kmh 30.45 in1031.2 mb 0.00 in0.0 mm 0.00 in0.0 mm 0.00 in0.0 mm
04:17 AM 47.5°F8.6°C 46.4°F8.0°C 96% 1.6 mph SW2.6 kmh SW 2.2 mph3.5 kmh 30.45 in1031.2 mb 0.00 in0.0 mm 0.00 in0.0 mm 0.00 in0.0 mm
04:12 AM 47.5°F8.6°C 46.4°F8.0°C 96% 3.1 mph S5.0 kmh S 3.8 mph6.1 kmh 30.45 in1031.2 mb 0.00 in0.0 mm 0.00 in0.0 mm 0.00 in0.0 mm
04:07 AM 47.5°F8.6°C 46.4°F8.0°C 96% 3.1 mph S5.0 kmh S 4.5 mph7.2 kmh 30.46 in1031.5 mb 0.00 in0.0 mm 0.00 in0.0 mm 0.00 in0.0 mm
04:02 AM 47.5°F8.6°C 46.1°F7.8°C 95% 2.2 mph SW3.5 kmh SW 3.1 mph5.0 kmh 30.45 in1031.2 mb 0.00 in0.0 mm 0.00 in0.0 mm 0.00 in0.0 mm
03:57 AM 47.7°F8.7°C 46.3°F7.9°C 95% 3.1 mph S5.0 kmh S 3.8 mph6.1 kmh 30.46 in1031.5 mb 0.00 in0.0 mm 0.00 in0.0 mm 0.00 in0.0 mm
03:52 AM 47.7°F8.7°C 46.3°F7.9°C 95% 2.2 mph SW3.5 kmh SW 3.1 mph5.0 kmh 30.46 in1031.5 mb 0.00 in0.0 mm 0.00 in0.0 mm 0.00 in0.0 mm
03:47 AM 47.7°F8.7°C 46.3°F7.9°C 95% 2.2 mph SW3.5 kmh SW 3.1 mph5.0 kmh 30.47 in1031.8 mb 0.00 in0.0 mm 0.00 in0.0 mm 0.00 in0.0 mm
03:42 AM 47.5°F8.6°C 46.1°F7.8°C 95% 3.8 mph W6.1 kmh W 5.4 mph8.7 kmh 30.46 in1031.5 mb 0.00 in0.0 mm 0.00 in0.0 mm 0.00 in0.0 mm
03:37 AM 47.7°F8.7°C 46.3°F7.9°C 95% 6.0 mph SW9.7 kmh SW 6.9 mph11.1 kmh 30.48 in1032.2 mb 0.00 in0.0 mm 0.00 in0.0 mm 0.00 in0.0 mm
03:32 AM 47.7°F8.7°C 46.0°F7.8°C 94% 3.8 mph SW6.1 kmh SW 5.4 mph8.7 kmh 30.46 in1031.5 mb 0.00 in0.0 mm 0.00 in0.0 mm 0.00 in0.0 mm
03:27 AM 47.8°F8.8°C 46.2°F7.9°C 94% 4.5 mph SSW7.2 kmh SSW 5.4 mph8.7 kmh 30.47 in1031.8 mb 0.00 in0.0 mm 0.00 in0.0 mm 0.00 in0.0 mm
03:22 AM 48.2°F9.0°C 46.6°F8.1°C 94% 3.1 mph SW5.0 kmh SW 3.8 mph6.1 kmh 30.47 in1031.8 mb 0.00 in0.0 mm 0.00 in0.0 mm 0.00 in0.0 mm
03:17 AM 48.2°F9.0°C 46.6°F8.1°C 94% 4.5 mph SW7.2 kmh SW 6.0 mph9.7 kmh 30.47 in1031.8 mb 0.00 in0.0 mm 0.00 in0.0 mm 0.00 in0.0 mm
03:12 AM 48.2°F9.0°C 46.6°F8.1°C 94% 4.5 mph S7.2 kmh S 5.4 mph8.7 kmh 30.47 in1031.8 mb 0.00 in0.0 mm 0.00 in0.0 mm 0.00 in0.0 mm
03:07 AM 48.2°F9.0°C 46.6°F8.1°C 94% 4.5 mph SW7.2 kmh SW 6.0 mph9.7 kmh 30.47 in1031.8 mb 0.00 in0.0 mm 0.00 in0.0 mm 0.00 in0.0 mm
03:02 AM 48.4°F9.1°C 46.7°F8.2°C 94% 3.1 mph S5.0 kmh S 3.8 mph6.1 kmh 30.47 in1031.8 mb 0.00 in0.0 mm 0.00 in0.0 mm 0.00 in0.0 mm
02:57 AM 48.4°F9.1°C 46.5°F8.1°C 93% 4.5 mph SW7.2 kmh SW 5.4 mph8.7 kmh 30.47 in1031.8 mb 0.00 in0.0 mm 0.00 in0.0 mm 0.00 in0.0 mm
02:52 AM 48.4°F9.1°C 46.5°F8.1°C 93% 4.5 mph SW7.2 kmh SW 5.4 mph8.7 kmh 30.47 in1031.8 mb 0.00 in0.0 mm 0.00 in0.0 mm 0.00 in0.0 mm
02:47 AM 48.4°F9.1°C 46.5°F8.1°C 93% 3.1 mph SW5.0 kmh SW 3.8 mph6.1 kmh 30.48 in1032.2 mb 0.00 in0.0 mm 0.00 in0.0 mm 0.00 in0.0 mm
02:42 AM 48.4°F9.1°C 46.5°F8.1°C 93% 2.2 mph SW3.5 kmh SW 3.1 mph5.0 kmh 30.48 in1032.2 mb 0.00 in0.0 mm 0.00 in0.0 mm 0.00 in0.0 mm
02:37 AM 48.6°F9.2°C 46.6°F8.1°C 93% 4.5 mph WSW7.2 kmh WSW 5.4 mph8.7 kmh 30.48 in1032.2 mb 0.00 in0.0 mm 0.00 in0.0 mm 0.00 in0.0 mm
02:32 AM 48.9°F9.4°C 47.0°F8.3°C 93% 4.5 mph SW7.2 kmh SW 5.4 mph8.7 kmh 30.48 in1032.2 mb 0.00 in0.0 mm 0.00 in0.0 mm 0.00 in0.0 mm
02:27 AM 49.3°F9.6°C 47.3°F8.5°C 93% 1.6 mph S2.6 kmh S 3.1 mph5.0 kmh 30.49 in1032.5 mb 0.00 in0.0 mm 0.00 in0.0 mm 0.00 in0.0 mm
02:22 AM 49.3°F9.6°C 47.3°F8.5°C 93% Calm Calm 1.6 mph2.6 kmh 30.48 in1032.2 mb 0.00 in0.0 mm 0.00 in0.0 mm 0.00 in0.0 mm
02:17 AM 49.5°F9.7°C 47.5°F8.6°C 93% 1.6 mph S2.6 kmh S 2.2 mph3.5 kmh 30.48 in1032.2 mb 0.00 in0.0 mm 0.00 in0.0 mm 0.00 in0.0 mm
02:12 AM 49.5°F9.7°C 47.5°F8.6°C 93% 1.6 mph W2.6 kmh W 3.1 mph5.0 kmh 30.48 in1032.2 mb 0.00 in0.0 mm 0.00 in0.0 mm 0.00 in0.0 mm
02:07 AM 49.5°F9.7°C 47.5°F8.6°C 93% 1.6 mph NE2.6 kmh NE 2.2 mph3.5 kmh 30.48 in1032.2 mb 0.00 in0.0 mm 0.00 in0.0 mm 0.00 in0.0 mm
02:02 AM 49.5°F9.7°C 47.5°F8.6°C 93% 1.6 mph W2.6 kmh W 2.2 mph3.5 kmh 30.49 in1032.5 mb 0.00 in0.0 mm 0.00 in0.0 mm 0.00 in0.0 mm
01:57 AM 49.5°F9.7°C 47.5°F8.6°C 93% 1.6 mph E2.6 kmh E 2.2 mph3.5 kmh 30.49 in1032.5 mb 0.00 in0.0 mm 0.00 in0.0 mm 0.00 in0.0 mm
01:52 AM 49.5°F9.7°C 47.5°F8.6°C 93% 1.6 mph SE2.6 kmh SE 2.2 mph3.5 kmh 30.49 in1032.5 mb 0.00 in0.0 mm 0.00 in0.0 mm 0.00 in0.0 mm
01:47 AM 49.6°F9.8°C 47.7°F8.7°C 93% 4.5 mph SE7.2 kmh SE 6.0 mph9.7 kmh 30.49 in1032.5 mb 0.00 in0.0 mm 0.00 in0.0 mm 0.00 in0.0 mm
01:42 AM 49.8°F9.9°C 47.9°F8.8°C 93% 1.6 mph E2.6 kmh E 3.1 mph5.0 kmh 30.49 in1032.5 mb 0.00 in0.0 mm 0.00 in0.0 mm 0.00 in0.0 mm
01:37 AM 49.8°F9.9°C 47.6°F8.7°C 92% Calm Calm 1.6 mph2.6 kmh 30.50 in1032.8 mb 0.00 in0.0 mm 0.00 in0.0 mm 0.00 in0.0 mm
01:32 AM 49.8°F9.9°C 47.6°F8.7°C 92% 3.1 mph NE5.0 kmh NE 3.1 mph5.0 kmh 30.50 in1032.8 mb 0.00 in0.0 mm 0.00 in0.0 mm 0.00 in0.0 mm
01:27 AM 50.0°F10.0°C 47.8°F8.8°C 92% 4.5 mph E7.2 kmh E 6.0 mph9.7 kmh 30.49 in1032.5 mb 0.00 in0.0 mm 0.00 in0.0 mm 0.00 in0.0 mm
01:22 AM 50.2°F10.1°C 47.9°F8.8°C 92% 2.2 mph SE3.5 kmh SE 3.8 mph6.1 kmh 30.49 in1032.5 mb 0.00 in0.0 mm 0.00 in0.0 mm 0.00 in0.0 mm
01:17 AM 50.4°F10.2°C 48.1°F8.9°C 92% 1.6 mph E2.6 kmh E 3.1 mph5.0 kmh 30.50 in1032.8 mb 0.00 in0.0 mm 0.00 in0.0 mm 0.00 in0.0 mm
01:12 AM 50.2°F10.1°C 47.9°F8.8°C 92% 0.7 mph SE1.1 kmh SE 1.6 mph2.6 kmh 30.49 in1032.5 mb 0.00 in0.0 mm 0.00 in0.0 mm 0.00 in0.0 mm
01:07 AM 50.2°F10.1°C 47.9°F8.8°C 92% 1.6 mph SE2.6 kmh SE 2.2 mph3.5 kmh 30.50 in1032.8 mb 0.00 in0.0 mm 0.00 in0.0 mm 0.00 in0.0 mm
01:02 AM 50.2°F10.1°C 47.9°F8.8°C 92% 2.2 mph SW3.5 kmh SW 3.1 mph5.0 kmh 30.50 in1032.8 mb 0.00 in0.0 mm 0.00 in0.0 mm 0.00 in0.0 mm
12:57 AM 50.2°F10.1°C 47.7°F8.7°C 91% 1.6 mph W2.6 kmh W 2.2 mph3.5 kmh 30.50 in1032.8 mb 0.00 in0.0 mm 0.00 in0.0 mm 0.00 in0.0 mm
12:52 AM 50.4°F10.2°C 47.8°F8.8°C 91% 3.1 mph SW5.0 kmh SW 3.8 mph6.1 kmh 30.50 in1032.8 mb 0.00 in0.0 mm 0.00 in0.0 mm 0.00 in0.0 mm
12:47 AM 50.4°F10.2°C 47.8°F8.8°C 91% 1.6 mph S2.6 kmh S 2.2 mph3.5 kmh 30.50 in1032.8 mb 0.00 in0.0 mm 0.00 in0.0 mm 0.00 in0.0 mm
12:42 AM 50.5°F10.3°C 48.0°F8.9°C 91% 1.6 mph S2.6 kmh S 2.2 mph3.5 kmh 30.50 in1032.8 mb 0.00 in0.0 mm 0.00 in0.0 mm 0.00 in0.0 mm
12:37 AM 50.7°F10.4°C 48.2°F9.0°C 91% 0.7 mph E1.1 kmh E 1.6 mph2.6 kmh 30.51 in1033.2 mb 0.00 in0.0 mm 0.00 in0.0 mm 0.00 in0.0 mm
12:32 AM 50.5°F10.3°C 48.0°F8.9°C 91% 1.6 mph NW2.6 kmh NW 2.2 mph3.5 kmh 30.51 in1033.2 mb 0.00 in0.0 mm 0.00 in0.0 mm 0.00 in0.0 mm
12:27 AM 50.5°F10.3°C 48.0°F8.9°C 91% 0.7 mph SE1.1 kmh SE 1.6 mph2.6 kmh 30.51 in1033.2 mb 0.00 in0.0 mm 0.00 in0.0 mm 0.00 in0.0 mm
12:22 AM 50.5°F10.3°C 48.0°F8.9°C 91% Calm Calm 0.7 mph1.1 kmh 30.50 in1032.8 mb 0.00 in0.0 mm 0.00 in0.0 mm 0.00 in0.0 mm
12:17 AM 50.5°F10.3°C 48.0°F8.9°C 91% Calm Calm -- 30.51 in1033.2 mb 0.00 in0.0 mm 0.00 in0.0 mm 0.00 in0.0 mm
12:12 AM 50.4°F10.2°C 47.5°F8.6°C 90% 0.7 mph S1.1 kmh S 1.6 mph2.6 kmh 30.51 in1033.2 mb 0.00 in0.0 mm 0.00 in0.0 mm 0.00 in0.0 mm
12:07 AM 50.4°F10.2°C 47.5°F8.6°C 90% 3.1 mph SW5.0 kmh SW 3.8 mph6.1 kmh 30.52 in1033.5 mb 0.00 in0.0 mm 0.00 in0.0 mm 0.00 in0.0 mm
12:02 AM 50.7°F10.4°C 47.9°F8.8°C 90% 1.6 mph S2.6 kmh S 2.2 mph3.5 kmh 30.52 in1033.5 mb 0.00 in0.0 mm 0.00 in0.0 mm 0.00 in0.0 mm